createdAt,value
2023-01-29T00:00:53.312Z,100346.54
2023-01-29T00:03:57.403Z,100350.95
2023-01-29T00:06:59.582Z,100350.30
2023-01-29T00:10:04.315Z,100355.66
2023-01-29T00:13:04.310Z,100355.08
2023-01-29T00:16:08.354Z,100355.30
2023-01-29T00:19:08.338Z,100354.73
2023-01-29T00:22:03.516Z,100351.96
2023-01-29T00:25:07.508Z,100349.79
2023-01-29T00:28:08.374Z,100354.95
2023-01-29T00:31:09.510Z,100355.94
2023-01-29T00:34:10.402Z,100355.61
2023-01-29T00:37:14.557Z,100355.67
2023-01-29T00:40:14.542Z,100358.13
2023-01-29T00:43:34.366Z,100363.88
2023-01-29T00:46:29.557Z,100366.24
2023-01-29T00:49:17.399Z,100363.84
2023-01-29T00:52:32.385Z,100363.40
2023-01-29T00:55:32.468Z,100363.71
2023-01-29T00:58:40.440Z,100356.71
2023-01-29T01:02:03.451Z,100352.56
2023-01-29T01:05:03.378Z,100358.14
2023-01-29T01:08:08.452Z,100357.56
2023-01-29T01:11:13.455Z,100362.14
2023-01-29T01:14:16.447Z,100360.44
2023-01-29T01:17:18.998Z,100360.59
2023-01-29T01:20:21.517Z,100364.84
2023-01-29T01:23:22.449Z,100369.44
2023-01-29T01:26:25.834Z,100370.23
2023-01-29T01:29:25.452Z,100369.59
2023-01-29T01:32:26.455Z,100366.41
2023-01-29T01:35:32.501Z,100367.09
2023-01-29T01:38:35.499Z,100363.28
2023-01-29T01:41:38.835Z,100362.36
2023-01-29T01:45:12.715Z,100365.33
2023-01-29T01:48:43.518Z,100363.41
2023-01-29T01:51:45.475Z,100366.88
2023-01-29T01:54:45.506Z,100368.13
2023-01-29T01:57:46.498Z,100364.77
2023-01-29T02:00:48.530Z,100364.59
2023-01-29T02:04:10.493Z,100364.02
2023-01-29T02:07:31.931Z,100360.94
2023-01-29T02:10:32.541Z,100369.03
2023-01-29T02:13:34.544Z,100374.09
2023-01-29T02:16:35.535Z,100370.16
2023-01-29T02:19:54.786Z,100371.98
2023-01-29T02:23:29.921Z,100371.80
2023-01-29T02:26:53.597Z,100367.45
2023-01-29T02:30:06.648Z,100368.58
2023-01-29T02:33:18.581Z,100367.58
2023-01-29T02:36:43.651Z,100369.13
2023-01-29T02:39:45.308Z,100367.75
2023-01-29T02:42:53.570Z,100367.48
2023-01-29T02:46:20.584Z,100366.02
2023-01-29T02:49:44.558Z,100365.85
2023-01-29T02:53:22.591Z,100368.41
2023-01-29T02:56:30.676Z,100368.58
2023-01-29T02:59:47.117Z,100367.70
2023-01-29T03:03:10.898Z,100370.77
2023-01-29T03:06:24.662Z,100371.81
2023-01-29T03:09:53.648Z,100370.04
2023-01-29T03:12:56.553Z,100365.66
2023-01-29T03:16:07.786Z,100365.52
2023-01-29T03:19:17.660Z,100362.16
2023-01-29T03:22:33.634Z,100363.66
2023-01-29T03:25:54.908Z,100365.02
2023-01-29T03:29:16.149Z,100363.84
2023-01-29T03:32:17.713Z,100366.33
2023-01-29T03:35:19.945Z,100363.79
2023-01-29T03:38:24.109Z,100359.77
2023-01-29T03:41:31.884Z,100362.20
2023-01-29T03:44:53.708Z,100362.11
2023-01-29T03:48:12.820Z,100364.02
2023-01-29T03:51:44.772Z,100364.20
2023-01-29T03:54:55.765Z,100363.14
2023-01-29T03:58:08.682Z,100360.45
2023-01-29T04:01:24.949Z,100362.58
2023-01-29T04:04:37.790Z,100364.17
2023-01-29T04:07:39.726Z,100365.14
2023-01-29T04:10:41.734Z,100365.92
2023-01-29T04:13:43.836Z,100366.71
2023-01-29T04:16:48.764Z,100361.08
2023-01-29T04:20:05.999Z,100359.80
2023-01-29T04:23:05.737Z,100354.70
2023-01-29T04:26:12.860Z,100353.20
2023-01-29T04:29:29.987Z,100356.70
2023-01-29T04:33:20.779Z,100357.27
2023-01-29T04:36:39.794Z,100359.72
2023-01-29T04:39:42.721Z,100359.63
2023-01-29T04:42:56.824Z,100357.73
2023-01-29T04:46:15.793Z,100360.77
2023-01-29T04:49:31.803Z,100362.09
2023-01-29T04:52:46.799Z,100364.92
2023-01-29T04:55:57.789Z,100362.77
2023-01-29T04:59:02.787Z,100364.48
2023-01-29T05:02:04.956Z,100364.70
2023-01-29T05:05:04.800Z,100365.37
2023-01-29T05:08:13.180Z,100367.31
2023-01-29T05:11:14.847Z,100368.39
2023-01-29T05:14:16.980Z,100365.21
2023-01-29T05:17:20.837Z,100367.87
2023-01-29T05:20:23.979Z,100364.48
2023-01-29T05:23:34.453Z,100364.92
2023-01-29T05:26:53.045Z,100366.75
2023-01-29T05:29:59.667Z,100367.27
2023-01-29T05:33:15.254Z,100366.84
2023-01-29T05:36:16.464Z,100369.41
2023-01-29T05:39:17.696Z,100369.63
2023-01-29T05:42:18.935Z,100366.42
2023-01-29T05:45:21.198Z,100371.07
2023-01-29T05:48:22.218Z,100369.58
2023-01-29T05:51:24.906Z,100377.55
2023-01-29T05:54:19.467Z,100376.70
2023-01-29T05:57:21.105Z,100371.60
2023-01-29T06:00:20.907Z,100371.59
2023-01-29T06:03:22.915Z,100378.70
2023-01-29T06:06:25.941Z,100379.49
2023-01-29T06:09:30.189Z,100378.80
2023-01-29T06:12:32.048Z,100374.77
2023-01-29T06:15:34.099Z,100373.30
2023-01-29T06:18:29.173Z,100376.04
2023-01-29T06:21:29.924Z,100378.95
2023-01-29T06:24:34.091Z,100378.51
2023-01-29T06:27:33.953Z,100378.02
2023-01-29T06:30:35.297Z,100380.08
2023-01-29T06:33:35.990Z,100378.13
2023-01-29T06:36:35.999Z,100380.96
2023-01-29T06:39:36.838Z,100383.80
2023-01-29T06:42:46.166Z,100384.86
2023-01-29T06:45:49.009Z,100382.21
2023-01-29T06:48:52.209Z,100379.89
2023-01-29T06:51:53.995Z,100389.52
2023-01-29T06:54:56.045Z,100384.09
2023-01-29T06:58:00.235Z,100384.97
2023-01-29T07:01:00.251Z,100385.45
2023-01-29T07:04:07.000Z,100384.95
2023-01-29T07:07:08.174Z,100382.80
2023-01-29T07:10:09.311Z,100381.64
2023-01-29T07:13:12.080Z,100377.16
2023-01-29T07:16:14.088Z,100373.04
2023-01-29T07:19:17.572Z,100373.61
2023-01-29T07:22:19.099Z,100370.54
2023-01-29T07:25:22.035Z,100372.85
2023-01-29T07:28:23.069Z,100376.81
2023-01-29T07:31:26.086Z,100378.63
2023-01-29T07:34:27.186Z,100379.59
2023-01-29T07:37:27.077Z,100374.16
2023-01-29T07:40:31.279Z,100380.52
2023-01-29T07:43:35.152Z,100372.33
2023-01-29T07:46:38.448Z,100367.02
2023-01-29T07:49:39.101Z,100366.74
2023-01-29T07:52:40.097Z,100368.45
2023-01-29T07:55:42.211Z,100373.03
2023-01-29T07:58:44.129Z,100370.48
2023-01-29T08:01:48.540Z,100372.46
2023-01-29T08:04:51.126Z,100375.01
2023-01-29T08:08:05.724Z,100379.40
2023-01-29T08:11:07.140Z,100382.90
2023-01-29T08:14:10.127Z,100375.70
2023-01-29T08:17:11.216Z,100380.88
2023-01-29T08:20:12.121Z,100375.52
2023-01-29T08:23:19.137Z,100375.86
2023-01-29T08:26:21.186Z,100376.48
2023-01-29T08:29:24.088Z,100378.63
2023-01-29T08:32:44.248Z,100377.28
2023-01-29T08:35:44.182Z,100379.28
2023-01-29T08:38:45.152Z,100381.29
2023-01-29T08:41:50.225Z,100381.69
2023-01-29T08:44:53.199Z,100377.38
2023-01-29T08:48:03.136Z,100377.39
2023-01-29T08:51:07.189Z,100373.95
2023-01-29T08:54:08.161Z,100372.74
2023-01-29T08:57:08.316Z,100371.34
2023-01-29T09:00:09.409Z,100367.91
2023-01-29T09:03:09.416Z,100372.58
2023-01-29T09:06:11.196Z,100365.51
2023-01-29T09:09:12.233Z,100360.73
2023-01-29T09:12:13.230Z,100358.39
2023-01-29T09:15:14.174Z,100355.93
2023-01-29T09:18:17.299Z,100350.15
2023-01-29T09:21:17.428Z,100348.29
2023-01-29T09:24:17.237Z,100350.96
2023-01-29T09:27:17.251Z,100350.64
2023-01-29T09:30:19.326Z,100343.77
2023-01-29T09:33:21.519Z,100338.23
2023-01-29T09:36:22.377Z,100336.46
2023-01-29T09:39:23.329Z,100338.41
2023-01-29T09:42:36.524Z,100335.58
2023-01-29T09:45:36.256Z,100328.10
2023-01-29T09:48:38.299Z,100326.13
2023-01-29T09:51:56.368Z,100328.64
2023-01-29T09:55:14.711Z,100329.03
2023-01-29T09:58:27.301Z,100323.08
2023-01-29T10:01:47.430Z,100317.14
2023-01-29T10:04:58.272Z,100311.84
2023-01-29T10:08:17.298Z,100310.77
2023-01-29T10:11:32.312Z,100307.41
2023-01-29T10:14:57.427Z,100301.83
2023-01-29T10:18:04.394Z,100301.89
2023-01-29T10:21:29.419Z,100302.80
2023-01-29T10:24:43.330Z,100295.54
2023-01-29T10:27:47.403Z,100292.04
2023-01-29T10:30:51.445Z,100288.02
2023-01-29T10:34:03.465Z,100286.91
2023-01-29T10:37:03.441Z,100276.98
2023-01-29T10:40:03.433Z,100277.23
2023-01-29T10:43:08.405Z,100272.71
2023-01-29T10:46:14.713Z,100270.54
2023-01-29T10:49:55.430Z,100271.31
2023-01-29T10:53:03.487Z,100263.73
2023-01-29T10:56:23.695Z,100256.65
2023-01-29T10:59:55.418Z,100253.73
2023-01-29T11:02:59.532Z,100249.46
2023-01-29T11:06:14.706Z,100245.27
2023-01-29T11:09:57.443Z,100240.46
2023-01-29T11:12:59.483Z,100233.92
2023-01-29T11:15:59.607Z,100236.58
2023-01-29T11:19:11.758Z,100234.92
2023-01-29T11:22:15.504Z,100236.13
2023-01-29T11:25:30.426Z,100236.41
2023-01-29T11:28:34.432Z,100237.14
2023-01-29T11:31:49.490Z,100232.15
2023-01-29T11:34:49.483Z,100230.79
2023-01-29T11:37:51.482Z,100233.98
2023-01-29T11:40:52.457Z,100233.03
2023-01-29T11:43:56.494Z,100234.60
2023-01-29T11:46:58.187Z,100235.77
2023-01-29T11:50:05.514Z,100235.24
2023-01-29T11:53:05.572Z,100230.66
2023-01-29T11:56:06.507Z,100228.50
2023-01-29T11:59:10.489Z,100223.27
2023-01-29T12:02:17.471Z,100218.77
2023-01-29T12:05:30.591Z,100219.67
2023-01-29T12:08:30.530Z,100215.71
2023-01-29T12:11:46.596Z,100216.27
2023-01-29T12:14:47.562Z,100214.27
2023-01-29T12:17:49.491Z,100211.11
2023-01-29T12:21:03.494Z,100206.77
2023-01-29T12:24:08.531Z,100204.88
2023-01-29T12:27:32.618Z,100209.70
2023-01-29T12:30:38.582Z,100209.55
2023-01-29T12:33:50.720Z,100207.48
2023-01-29T12:37:08.525Z,100205.42
2023-01-29T12:40:08.646Z,100203.83
2023-01-29T12:43:09.591Z,100205.77
2023-01-29T12:46:09.594Z,100202.66
2023-01-29T12:49:13.578Z,100199.64
2023-01-29T12:52:19.584Z,100198.39
2023-01-29T12:55:32.604Z,100197.20
2023-01-29T12:58:44.784Z,100199.91
2023-01-29T13:01:50.648Z,100193.11
2023-01-29T13:05:00.801Z,100194.46
2023-01-29T13:08:04.968Z,100199.21
2023-01-29T13:11:10.465Z,100196.93
2023-01-29T13:14:18.064Z,100197.70
2023-01-29T13:17:30.620Z,100196.61
2023-01-29T13:20:35.617Z,100195.70
2023-01-29T13:23:41.618Z,100198.88
2023-01-29T13:26:43.710Z,100200.76
2023-01-29T13:29:43.736Z,100198.30
2023-01-29T13:32:47.346Z,100196.14
2023-01-29T13:36:11.663Z,100192.23
2023-01-29T13:39:40.704Z,100196.40
2023-01-29T13:43:01.677Z,100194.35
2023-01-29T13:46:02.839Z,100193.17
2023-01-29T13:49:06.830Z,100194.27
2023-01-29T13:52:06.646Z,100190.95
2023-01-29T13:55:36.706Z,100194.27
2023-01-29T13:58:46.895Z,100195.35
2023-01-29T14:02:01.705Z,100195.02
2023-01-29T14:05:02.758Z,100199.41
2023-01-29T14:08:05.714Z,100192.43
2023-01-29T14:11:47.727Z,100189.52
2023-01-29T14:15:09.553Z,100184.31
2023-01-29T14:18:32.773Z,100181.88
2023-01-29T14:21:38.767Z,100175.18
2023-01-29T14:24:48.752Z,100172.65
2023-01-29T14:27:49.728Z,100171.98
2023-01-29T14:30:52.816Z,100174.98
2023-01-29T14:33:54.730Z,100175.73
2023-01-29T14:37:01.764Z,100174.95
2023-01-29T14:40:08.736Z,100175.20
2023-01-29T14:43:16.773Z,100178.77
2023-01-29T14:46:55.898Z,100182.84
2023-01-29T14:50:01.787Z,100189.63
2023-01-29T14:53:03.760Z,100193.05
2023-01-29T14:56:16.011Z,100194.25
2023-01-29T14:59:25.753Z,100198.09
2023-01-29T15:02:39.838Z,100196.55
2023-01-29T15:05:41.942Z,100194.48
2023-01-29T15:08:47.806Z,100194.59
2023-01-29T15:11:58.828Z,100193.00
2023-01-29T15:15:27.455Z,100194.51
2023-01-29T15:18:39.822Z,100196.36
2023-01-29T15:21:40.243Z,100196.31
2023-01-29T15:24:39.794Z,100196.58
2023-01-29T15:27:42.835Z,100197.02
2023-01-29T15:30:45.920Z,100199.38
2023-01-29T15:33:55.903Z,100201.79
2023-01-29T15:36:56.983Z,100202.89
2023-01-29T15:40:12.991Z,100204.23
2023-01-29T15:44:39.500Z,100200.88
2023-01-29T15:47:26.943Z,100209.91
2023-01-29T15:50:26.908Z,100205.67
2023-01-29T15:53:29.862Z,100207.11
2023-01-29T15:56:35.870Z,100206.63
2023-01-29T15:59:45.942Z,100208.02
2023-01-29T16:02:56.927Z,100207.64
2023-01-29T16:05:56.874Z,100207.79
2023-01-29T16:09:01.984Z,100203.78
2023-01-29T16:12:04.926Z,100200.61
2023-01-29T16:15:04.947Z,100203.72
2023-01-29T16:18:05.946Z,100208.10
2023-01-29T16:21:06.970Z,100207.95
2023-01-29T16:24:16.038Z,100203.88
2023-01-29T16:27:21.028Z,100208.83
2023-01-29T16:30:26.020Z,100212.89
2023-01-29T16:33:26.938Z,100215.58
2023-01-29T16:36:31.943Z,100216.42
2023-01-29T16:39:34.006Z,100213.23
2023-01-29T16:42:45.002Z,100214.84
2023-01-29T16:45:46.938Z,100216.61
2023-01-29T16:48:48.005Z,100216.58
2023-01-29T16:51:53.093Z,100216.16
2023-01-29T16:54:55.065Z,100216.16
2023-01-29T16:57:56.080Z,100214.67
2023-01-29T17:00:57.004Z,100215.38
2023-01-29T17:03:58.052Z,100214.77
2023-01-29T17:07:00.982Z,100214.59
2023-01-29T17:10:05.254Z,100219.57
2023-01-29T17:13:11.005Z,100217.70
2023-01-29T17:16:16.156Z,100216.66
2023-01-29T17:19:24.130Z,100215.33
2023-01-29T17:22:17.147Z,100213.52
2023-01-29T17:25:18.367Z,100214.79
2023-01-29T17:28:20.041Z,100210.94
2023-01-29T17:31:24.149Z,100209.42
2023-01-29T17:34:25.059Z,100203.57
2023-01-29T17:37:28.102Z,100201.84
2023-01-29T17:40:54.273Z,100200.42
2023-01-29T17:43:57.185Z,100203.82
2023-01-29T17:46:57.183Z,100197.31
2023-01-29T17:49:57.087Z,100191.36
2023-01-29T17:52:57.305Z,100186.65
2023-01-29T17:56:01.075Z,100184.73
2023-01-29T17:59:03.108Z,100181.34
2023-01-29T18:02:03.187Z,100177.70
2023-01-29T18:05:03.105Z,100175.58
2023-01-29T18:08:04.078Z,100175.66
2023-01-29T18:11:05.070Z,100171.93
2023-01-29T18:14:13.614Z,100168.16
2023-01-29T18:17:22.110Z,100164.73
2023-01-29T18:20:51.436Z,100165.77
2023-01-29T18:23:52.139Z,100167.11
2023-01-29T18:26:54.203Z,100165.95
2023-01-29T18:29:57.253Z,100167.48
2023-01-29T18:33:00.247Z,100166.30
2023-01-29T18:36:04.206Z,100166.63
2023-01-29T18:39:05.256Z,100168.58
2023-01-29T18:42:08.194Z,100170.90
2023-01-29T18:45:10.572Z,100170.20
2023-01-29T18:48:11.137Z,100170.11
2023-01-29T18:51:11.679Z,100169.46
2023-01-29T18:54:12.150Z,100167.52
2023-01-29T18:57:16.655Z,100171.77
2023-01-29T19:00:36.144Z,100174.59
2023-01-29T19:03:38.294Z,100172.48
2023-01-29T19:06:39.167Z,100175.89
2023-01-29T19:09:41.571Z,100176.34
2023-01-29T19:12:44.215Z,100177.09
2023-01-29T19:15:44.312Z,100176.88
2023-01-29T19:18:37.570Z,100176.17
2023-01-29T19:21:42.266Z,100172.52
2023-01-29T19:24:45.289Z,100174.70
2023-01-29T19:27:45.233Z,100173.40
2023-01-29T19:30:45.487Z,100167.20
2023-01-29T19:33:46.446Z,100167.13
2023-01-29T19:36:47.376Z,100166.77
2023-01-29T19:39:50.196Z,100160.00
2023-01-29T19:42:51.278Z,100162.86
2023-01-29T19:45:54.262Z,100161.45
2023-01-29T19:52:21.325Z,100153.66
2023-01-29T19:55:22.568Z,100149.80
2023-01-29T19:58:32.341Z,100151.27
2023-01-29T20:01:37.679Z,100151.70
2023-01-29T20:04:38.530Z,100152.77
2023-01-29T20:07:44.829Z,100155.36
2023-01-29T20:10:47.372Z,100156.83
2023-01-29T20:13:54.466Z,100152.89
2023-01-29T20:17:16.295Z,100145.31
2023-01-29T20:20:30.978Z,100145.25
2023-01-29T20:24:01.339Z,100150.34
2023-01-29T20:27:07.383Z,100155.02
2023-01-29T20:34:28.075Z,100152.97
2023-01-29T20:38:09.000Z,100157.20
2023-01-29T20:41:37.591Z,100154.19
2023-01-29T20:48:36.528Z,100155.30
2023-01-29T20:52:01.341Z,100153.63
2023-01-29T20:55:07.452Z,100158.16
2023-01-29T20:58:21.342Z,100152.03
2023-01-29T21:05:33.792Z,100151.89
2023-01-29T21:08:52.111Z,100145.16
2023-01-29T21:15:47.422Z,100148.36
2023-01-29T21:18:53.437Z,100141.27
2023-01-29T21:21:56.599Z,100131.83
2023-01-29T21:24:59.436Z,100138.69
2023-01-29T21:27:52.545Z,100136.69
2023-01-29T21:30:53.459Z,100132.26
2023-01-29T21:33:57.194Z,100132.98
2023-01-29T21:36:58.422Z,100130.52
2023-01-29T21:39:58.437Z,100133.96
2023-01-29T21:43:17.414Z,100135.97
2023-01-29T21:46:19.546Z,100135.52
2023-01-29T21:49:20.394Z,100126.95
2023-01-29T21:52:20.898Z,100117.03
2023-01-29T21:55:27.693Z,100122.59
2023-01-29T21:58:28.578Z,100114.02
2023-01-29T22:01:48.575Z,100119.12
2023-01-29T22:05:02.415Z,100114.79
2023-01-29T22:08:12.519Z,100114.02
2023-01-29T22:11:20.474Z,100109.58
2023-01-29T22:14:24.523Z,100104.75
2023-01-29T22:17:26.815Z,100108.87
2023-01-29T22:20:26.534Z,100107.20
2023-01-29T22:23:27.553Z,100104.83
2023-01-29T22:26:27.553Z,100101.66
2023-01-29T22:29:27.574Z,100103.77
2023-01-29T22:32:28.701Z,100100.91
2023-01-29T22:35:28.504Z,100105.32
2023-01-29T22:38:29.951Z,100101.51
2023-01-29T22:41:32.841Z,100097.77
2023-01-29T22:44:33.764Z,100097.77
2023-01-29T22:47:33.522Z,100093.13
2023-01-29T22:50:34.560Z,100099.23
2023-01-29T22:53:35.144Z,100097.70
2023-01-29T22:56:37.565Z,100090.73
2023-01-29T22:59:37.543Z,100087.31
2023-01-29T23:02:30.716Z,100083.05
2023-01-29T23:05:30.570Z,100078.23
2023-01-29T23:08:31.558Z,100072.42
2023-01-29T23:11:35.593Z,100069.86
2023-01-29T23:14:38.785Z,100067.07
2023-01-29T23:17:42.684Z,100063.90
2023-01-29T23:20:43.619Z,100060.69
2023-01-29T23:23:45.200Z,100049.96
2023-01-29T23:27:04.644Z,100042.12
2023-01-29T23:30:07.632Z,100036.05
2023-01-29T23:33:12.232Z,100030.32
2023-01-29T23:36:13.632Z,100025.46
2023-01-29T23:39:16.468Z,100025.23
2023-01-29T23:42:24.917Z,100021.55
2023-01-29T23:45:25.680Z,100016.83
2023-01-29T23:48:26.782Z,100008.03
2023-01-29T23:51:28.616Z,100008.23
2023-01-29T23:54:29.812Z,100004.94
2023-01-29T23:57:30.349Z,100002.06
